Woodcreek, Texas
Current Conditions -  °F | °C
As of 4:45 PM on Monday 24 Nov 2014 (Local Time) from KHYI Reporting Station
Clear Clear  
Wind Chill: 61°   Ceiling: Unl
Heat Index: 61°   Visibility: 10mi
Dew Point: 25°   Wind: 10mph
Humidity: 25%   Direction: 10°N
Pressure: 30.06"   Gusts: NA
Location:  30.0586°N, 98.15°W
Report Text: KHYI 242245Z 01009KT 10SM CLR 16/M04 A3006
Loading
Personal Weather Stations






























Interactive Weather Map New forecast layout! Learn more

10-Day Weather Forecast

Advertisements
Track Severe Weather on mobile